Time;durP1;ratioP1;P1;durP2;ratioP2;P2;SDS_P1;SDS_P2;PMS_P1;PMS_P2;Temp;Humidity;BMP_temperature;BMP_pressure;BME280_temperature;BME280_humidity;BME280_pressure;Samples;Min_cycle;Max_cycle;Signal;HPM_P1;HPM_P2
2023/09/20 00:05:18;;;;;;;;;;;12.60;99.90;;;;;;21065674;28;20390;-74
2023/09/20 00:15:18;;;;;;;;;;;12.50;99.90;;;;;;21043367;28;19917;-74
2023/09/20 00:25:20;;;;;;;;;;;12.80;99.90;;;;;;21056428;28;19916;-74
2023/09/20 00:35:21;;;;;;;;;;;12.70;99.90;;;;;;21068345;28;19926;-74
2023/09/20 00:45:22;;;;;;;;;;;12.50;99.90;;;;;;21066865;28;19967;-73
2023/09/20 00:55:28;;;;;;;;;;;12.40;99.90;;;;;;21059652;28;19920;-74
2023/09/20 01:05:34;;;;;;;;;;;12.70;99.90;;;;;;21019028;28;20012;-74
2023/09/20 01:15:35;;;;;;;;;;;12.70;99.90;;;;;;21054987;28;19970;-74
2023/09/20 01:25:40;;;;;;;;;;;12.80;99.90;;;;;;21065268;28;19923;-74
2023/09/20 01:35:40;;;;;;;;;;;12.40;99.90;;;;;;21036550;28;19920;-74
2023/09/20 01:45:43;;;;;;;;;;;12.20;99.90;;;;;;21062416;28;20361;-74
2023/09/20 01:55:44;;;;;;;;;;;12.20;99.90;;;;;;21032198;28;19916;-74
2023/09/20 02:05:48;;;;;;;;;;;12.20;99.90;;;;;;21056368;28;19938;-74
2023/09/20 02:15:51;;;;;;;;;;;12.20;99.90;;;;;;21066105;28;20400;-74
2023/09/20 02:25:54;;;;;;;;;;;11.90;99.90;;;;;;21064065;28;19928;-74
2023/09/20 02:35:54;;;;;;;;;;;11.70;99.90;;;;;;21059085;28;19920;-73
2023/09/20 02:46:02;;;;;;;;;;;11.60;99.90;;;;;;21048446;28;20027;-74
2023/09/20 02:56:05;;;;;;;;;;;11.30;99.90;;;;;;21018086;28;20011;-73
2023/09/20 03:06:11;;;;;;;;;;;11.30;99.90;;;;;;21073088;28;19912;-73
2023/09/20 03:16:18;;;;;;;;;;;11.50;99.90;;;;;;21060928;28;19918;-74
2023/09/20 03:26:19;;;;;;;;;;;11.40;99.90;;;;;;21035620;28;20035;-73
2023/09/20 03:36:20;;;;;;;;;;;11.20;99.90;;;;;;21054227;28;19963;-74
2023/09/20 03:46:23;;;;;;;;;;;11.30;99.90;;;;;;21071439;28;19919;-74
2023/09/20 03:56:24;;;;;;;;;;;11.60;99.90;;;;;;21037563;28;19916;-74
2023/09/20 04:06:26;;;;;;;;;;;11.50;99.90;;;;;;21012010;28;20008;-74
2023/09/20 04:16:28;;;;;;;;;;;11.50;99.90;;;;;;21004540;28;19970;-73
2023/09/20 04:26:29;;;;;;;;;;;11.50;99.90;;;;;;21067111;28;19916;-74
2023/09/20 04:36:29;;;;;;;;;;;11.20;99.90;;;;;;21045120;28;19939;-73
2023/09/20 04:46:30;;;;;;;;;;;11.40;99.90;;;;;;21064130;28;19919;-72
2023/09/20 04:56:31;;;;;;;;;;;11.40;99.90;;;;;;21041451;28;19932;-72
2023/09/20 05:06:32;;;;;;;;;;;11.40;99.90;;;;;;21007647;28;19959;-72
2023/09/20 05:16:32;;;;;;;;;;;11.60;99.90;;;;;;21042089;28;20026;-72
2023/09/20 05:26:34;;;;;;;;;;;11.60;99.90;;;;;;21066340;28;20412;-73
2023/09/20 05:36:35;;;;;;;;;;;11.60;99.90;;;;;;21068116;28;19956;-72
2023/09/20 05:46:36;;;;;;;;;;;11.80;99.90;;;;;;21067806;28;19912;-73
2023/09/20 05:56:36;;;;;;;;;;;12.00;99.90;;;;;;21066941;28;19916;-73
2023/09/20 06:06:38;;;;;;;;;;;12.30;99.90;;;;;;21046516;28;20003;-72
2023/09/20 06:16:38;;;;;;;;;;;12.90;99.90;;;;;;21019337;28;19954;-72
2023/09/20 06:26:43;;;;;;;;;;;13.60;99.90;;;;;;21067422;28;19920;-72
2023/09/20 06:36:44;;;;;;;;;;;14.20;99.90;;;;;;21066649;28;19916;-73
2023/09/20 06:46:45;;;;;;;;;;;14.40;99.90;;;;;;21044185;28;19942;-73
2023/09/20 06:56:47;;;;;;;;;;;14.90;99.90;;;;;;21065537;28;19923;-72
2023/09/20 07:06:47;;;;;;;;;;;15.60;99.90;;;;;;21075658;28;19912;-73
2023/09/20 07:16:51;;;;;;;;;;;16.30;99.90;;;;;;21080251;28;19920;-73
2023/09/20 07:26:52;;;;;;;;;;;17.10;99.90;;;;;;21079818;28;19916;-72
2023/09/20 07:36:53;;;;;;;;;;;18.00;99.90;;;;;;21079358;28;20332;-73
2023/09/20 07:46:54;;;;;;;;;;;17.80;99.90;;;;;;21078662;28;19916;-72
2023/09/20 07:56:55;;;;;;;;;;;18.30;99.90;;;;;;21023812;28;20386;-73
2023/09/20 08:06:55;;;;;;;;;;;18.80;99.90;;;;;;21028240;28;20116;-72
2023/09/20 09:08:34;;;;;;;;;;;24.20;99.90;;;;;;21057694;28;19919;-72
2023/09/20 09:18:35;;;;;;;;;;;24.30;99.90;;;;;;21025129;28;19916;-73
2023/09/20 09:28:36;;;;;;;;;;;23.60;99.90;;;;;;21059905;28;20340;-72
2023/09/20 09:38:39;;;;;;;;;;;24.70;99.90;;;;;;21070513;28;19916;-73
2023/09/20 09:48:42;;;;;;;;;;;25.30;99.90;;;;;;21006888;28;19977;-74
2023/09/20 09:58:43;;;;;;;;;;;25.20;99.90;;;;;;20968555;28;19927;-73
2023/09/20 10:08:48;;;;;;;;;;;23.70;99.90;;;;;;20963733;28;19999;-74
2023/09/20 10:18:51;;;;;;;;;;;25.80;99.90;;;;;;20971801;28;20447;-73
2023/09/20 10:28:57;;;;;;;;;;;26.30;99.90;;;;;;20964125;28;19960;-71
2023/09/20 10:39:33;;;;;;;;;;;27.40;99.90;;;;;;20972651;28;19916;-73
2023/09/20 10:49:49;;;;;;;;;;;27.60;99.90;;;;;;20892138;28;19971;-73
2023/09/20 10:59:53;;;;;;;;;;;27.20;99.90;;;;;;21029679;28;20325;-73
2023/09/20 11:09:54;;;;;;;;;;;25.60;99.90;;;;;;20981698;28;19963;-73
2023/09/20 11:19:57;;;;;;;;;;;26.90;99.90;;;;;;20997895;28;19921;-73
2023/09/20 11:30:04;;;;;;;;;;;26.90;99.90;;;;;;20994793;28;19917;-74
2023/09/20 11:40:05;;;;;;;;;;;26.50;99.90;;;;;;21027878;28;19924;-73
2023/09/20 11:50:07;;;;;;;;;;;27.80;99.90;;;;;;21070338;28;19927;-73
2023/09/20 12:00:11;;;;;;;;;;;28.70;99.90;;;;;;21042294;28;19947;-73
2023/09/20 12:10:12;;;;;;;;;;;28.00;99.90;;;;;;21077800;28;19922;-73
2023/09/20 12:20:15;;;;;;;;;;;28.70;99.90;;;;;;21076264;28;19943;-74
2023/09/20 12:30:17;;;;;;;;;;;28.60;99.90;;;;;;21076919;28;19916;-74
2023/09/20 12:40:21;;;;;;;;;;;28.40;99.90;;;;;;21076083;28;19923;-73
2023/09/20 12:50:22;;;;;;;;;;;29.30;99.30;;;;;;21054899;28;20009;-73
2023/09/20 13:00:23;;;;;;;;;;;27.80;99.40;;;;;;20982833;28;19943;-73
2023/09/20 13:10:24;;;;;;;;;;;27.40;99.90;;;;;;21042887;28;19912;-73
2023/09/20 13:20:25;;;;;;;;;;;26.50;99.90;;;;;;21044784;28;19963;-73
2023/09/20 13:30:26;;;;;;;;;;;26.70;99.90;;;;;;21056255;28;20155;-73
2023/09/20 13:40:27;;;;;;;;;;;26.90;99.90;;;;;;21028176;28;19916;-73
2023/09/20 13:50:31;;;;;;;;;;;27.50;99.80;;;;;;20950229;28;21397;-73
2023/09/20 14:00:32;;;;;;;;;;;28.50;98.60;;;;;;20968328;28;19927;-73
2023/09/20 14:10:34;;;;;;;;;;;28.00;97.40;;;;;;20963982;28;19913;-73
2023/09/20 14:20:34;;;;;;;;;;;27.60;97.30;;;;;;20978072;28;19984;-73
2023/09/20 14:30:36;;;;;;;;;;;28.20;96.90;;;;;;20986402;28;19917;-73
2023/09/20 14:40:37;;;;;;;;;;;28.30;95.10;;;;;;20972322;28;19956;-73
2023/09/20 14:50:38;;;;;;;;;;;28.30;96.40;;;;;;20967148;28;19913;-73
2023/09/20 15:00:39;;;;;;;;;;;27.70;96.30;;;;;;20984385;28;20393;-74
2023/09/20 15:10:40;;;;;;;;;;;27.40;96.00;;;;;;20973130;28;19912;-73
2023/09/20 15:20:41;;;;;;;;;;;26.90;96.70;;;;;;20987471;28;19916;-75
2023/09/20 15:30:42;;;;;;;;;;;27.20;94.40;;;;;;20973003;28;19927;-73
2023/09/20 15:40:43;;;;;;;;;;;26.70;93.20;;;;;;21000924;28;19920;-73
2023/09/20 15:50:44;;;;;;;;;;;26.50;93.70;;;;;;20966192;28;19952;-73
2023/09/20 16:00:44;;;;;;;;;;;25.90;93.60;;;;;;20993834;28;20280;-73
2023/09/20 16:10:45;;;;;;;;;;;25.20;94.50;;;;;;20972491;28;19955;-73
2023/09/20 16:20:46;;;;;;;;;;;24.90;94.60;;;;;;20967555;28;20314;-73
2023/09/20 16:30:47;;;;;;;;;;;24.80;96.00;;;;;;20986406;28;20339;-73
2023/09/20 16:40:49;;;;;;;;;;;24.40;97.20;;;;;;20983345;28;19916;-73
2023/09/20 16:50:49;;;;;;;;;;;23.90;98.90;;;;;;20969577;28;20381;-73
2023/09/20 17:00:50;;;;;;;;;;;23.60;99.90;;;;;;20957432;28;20006;-73
2023/09/20 17:10:51;;;;;;;;;;;22.70;99.90;;;;;;20947533;28;19919;-72
2023/09/20 17:20:51;;;;;;;;;;;21.90;99.90;;;;;;20960785;28;19981;-72
2023/09/20 17:30:53;;;;;;;;;;;21.00;99.90;;;;;;20960980;28;19926;-72
2023/09/20 17:40:54;;;;;;;;;;;20.50;99.90;;;;;;20959014;28;19920;-73
2023/09/20 17:50:58;;;;;;;;;;;20.00;99.90;;;;;;20958650;28;19973;-72
2023/09/20 18:01:01;;;;;;;;;;;19.50;99.90;;;;;;20960476;28;20337;-72
2023/09/20 18:11:01;;;;;;;;;;;18.70;99.90;;;;;;20959282;28;19943;-71
2023/09/20 18:21:02;;;;;;;;;;;18.40;99.90;;;;;;20959592;28;20280;-72
2023/09/20 18:31:12;;;;;;;;;;;18.40;99.90;;;;;;20959589;28;19962;-72
2023/09/20 18:41:16;;;;;;;;;;;18.00;99.90;;;;;;20967595;28;19925;-72
2023/09/20 18:51:17;;;;;;;;;;;17.80;99.90;;;;;;20965600;28;20027;-72
2023/09/20 19:01:20;;;;;;;;;;;17.10;99.90;;;;;;20996804;28;19982;-72
2023/09/20 19:11:21;;;;;;;;;;;17.50;99.90;;;;;;20990747;28;19912;-72
2023/09/20 19:21:23;;;;;;;;;;;17.20;99.90;;;;;;21003712;28;19916;-73
2023/09/20 19:31:24;;;;;;;;;;;17.20;99.90;;;;;;21002828;28;19916;-74
2023/09/20 19:41:26;;;;;;;;;;;16.70;99.90;;;;;;21002167;28;19939;-74
2023/09/20 19:51:28;;;;;;;;;;;17.20;99.90;;;;;;21001613;28;19912;-71
2023/09/20 20:01:33;;;;;;;;;;;17.30;99.90;;;;;;20999322;28;20406;-71
2023/09/20 20:11:34;;;;;;;;;;;17.60;99.90;;;;;;20999562;28;20045;-72
2023/09/20 20:21:36;;;;;;;;;;;17.40;99.90;;;;;;20986256;28;19920;-72
2023/09/20 20:31:38;;;;;;;;;;;17.40;99.90;;;;;;20977749;28;19917;-74
2023/09/20 20:41:39;;;;;;;;;;;17.50;99.90;;;;;;20979936;28;20007;-72
2023/09/20 20:51:43;;;;;;;;;;;17.30;99.90;;;;;;20996697;28;20212;-72
2023/09/20 21:01:45;;;;;;;;;;;17.20;99.90;;;;;;20994826;28;19917;-74
2023/09/20 21:11:45;;;;;;;;;;;17.20;99.90;;;;;;20996043;28;19912;-76
2023/09/20 21:21:46;;;;;;;;;;;17.00;99.90;;;;;;20994701;28;19923;-73
2023/09/20 21:31:48;;;;;;;;;;;17.10;99.90;;;;;;20992925;28;19961;-72
2023/09/20 21:41:48;;;;;;;;;;;17.30;99.90;;;;;;20966615;28;19924;-72
2023/09/20 21:51:49;;;;;;;;;;;17.30;99.90;;;;;;20992006;28;19913;-72
2023/09/20 22:01:52;;;;;;;;;;;17.30;99.90;;;;;;20993940;28;20462;-72
2023/09/20 22:11:54;;;;;;;;;;;17.30;99.90;;;;;;20985514;28;19916;-74
2023/09/20 22:21:59;;;;;;;;;;;17.20;99.90;;;;;;20993518;28;19943;-72
2023/09/20 22:31:59;;;;;;;;;;;17.10;99.90;;;;;;20995870;28;19920;-72
2023/09/20 22:42:00;;;;;;;;;;;17.10;99.90;;;;;;21008178;28;19967;-71
2023/09/20 22:52:01;;;;;;;;;;;16.90;99.90;;;;;;21007720;28;20375;-72
2023/09/20 23:02:01;;;;;;;;;;;16.90;99.90;;;;;;21008727;28;20353;-72
2023/09/20 23:12:03;;;;;;;;;;;17.10;99.90;;;;;;21007898;28;20661;-72
2023/09/20 23:22:11;;;;;;;;;;;17.10;99.90;;;;;;21006134;28;19931;-72
2023/09/20 23:32:12;;;;;;;;;;;17.00;99.90;;;;;;21006912;28;20366;-72
2023/09/20 23:42:15;;;;;;;;;;;16.80;99.90;;;;;;21005679;28;19917;-72
2023/09/20 23:52:16;;;;;;;;;;;16.90;99.90;;;;;;21004318;28;20395;-72
